Time;durP1;ratioP1;P1;durP2;ratioP2;P2;SDS_P1;SDS_P2;PMS_P1;PMS_P2;Temp;Humidity;BMP_temperature;BMP_pressure;BME280_temperature;BME280_humidity;BME280_pressure;Samples;Min_cycle;Max_cycle;Signal;HPM_P1;HPM_P2
2021/06/06 00:01:20;;;;;;;;;8.00;8.00;;;;;-147.17;100.00;59696.56;5029570;28;53202;-44
2021/06/06 00:03:50;;;;;;;;;10.25;10.25;;;;;-147.17;100.00;59696.56;5023763;28;51945;-45
2021/06/06 00:06:19;;;;;;;;;8.00;8.00;;;;;-147.17;100.00;59696.56;5032497;28;50925;-46
2021/06/06 00:08:46;;;;;;;;;9.00;8.33;;;;;-147.17;100.00;59696.56;5026412;28;51351;-45
2021/06/06 00:11:28;;;;;;;;;6.00;6.00;;;;;-147.17;100.00;59696.56;5026901;28;52738;-46
2021/06/06 00:13:57;;;;;;;;;9.00;8.33;;;;;-147.17;100.00;59696.56;5029952;28;51300;-44
2021/06/06 00:16:30;;;;;;;;;7.00;7.00;;;;;-147.17;100.00;59696.56;5058657;27;51194;-45
2021/06/06 00:18:55;;;;;;;;;8.00;8.00;;;;;-147.17;100.00;59696.56;5026533;28;51342;-45
2021/06/06 00:21:24;;;;;;;;;9.25;8.00;;;;;-147.17;100.00;59696.56;5031203;28;51181;-44
2021/06/06 00:23:50;;;;;;;;;10.75;10.00;;;;;-147.17;100.00;59696.56;5025786;28;53104;-44
2021/06/06 00:26:17;;;;;;;;;9.50;9.50;;;;;-147.17;100.00;59696.56;5031973;28;50985;-44
2021/06/06 00:28:42;;;;;;;;;10.00;9.50;;;;;-147.17;100.00;59696.56;5029698;28;51155;-45
2021/06/06 00:31:09;;;;;;;;;10.50;10.50;;;;;-147.17;100.00;59696.56;5062597;28;51957;-43
2021/06/06 00:33:36;;;;;;;;;12.00;11.00;;;;;-147.17;100.00;59696.56;5028282;28;51135;-44
2021/06/06 00:36:04;;;;;;;;;11.25;11.25;;;;;-147.17;100.00;59696.56;5029865;28;51289;-43
2021/06/06 00:38:30;;;;;;;;;11.00;10.00;;;;;-147.17;100.00;59696.56;5022722;28;52226;-44
2021/06/06 00:40:57;;;;;;;;;9.75;9.75;;;;;-147.17;100.00;59696.56;5030825;28;52706;-44
2021/06/06 00:43:24;;;;;;;;;7.00;7.00;;;;;-147.17;100.00;59696.56;5020689;28;50971;-43
2021/06/06 00:45:50;;;;;;;;;8.67;7.67;;;;;-147.17;100.00;59696.56;5030598;28;51372;-45
2021/06/06 00:48:15;;;;;;;;;7.00;7.00;;;;;-147.17;100.00;59696.56;5024813;28;51162;-43
2021/06/06 00:50:44;;;;;;;;;6.75;6.75;;;;;-147.17;100.00;59696.56;5031774;28;52144;-42
2021/06/06 00:53:17;;;;;;;;;7.00;7.00;;;;;-147.17;100.00;59696.56;5027716;28;51118;-43
2021/06/06 00:55:42;;;;;;;;;9.25;8.75;;;;;-147.17;100.00;59696.56;5028389;28;51121;-42
2021/06/06 00:58:12;;;;;;;;;10.00;9.00;;;;;-147.17;100.00;59696.56;5028696;28;50933;-42
2021/06/06 01:00:46;;;;;;;;;8.00;7.50;;;;;-147.17;100.00;59696.56;5026261;28;51190;-44
2021/06/06 01:03:12;;;;;;;;;11.00;10.00;;;;;-147.17;100.00;59696.56;5029063;28;51153;-42
2021/06/06 01:05:51;;;;;;;;;9.75;9.75;;;;;-147.17;100.00;59696.56;5024019;28;51179;-43
2021/06/06 01:08:19;;;;;;;;;9.75;9.00;;;;;-147.17;100.00;59696.56;5029131;28;51369;-43
2021/06/06 01:10:49;;;;;;;;;7.25;7.25;;;;;-147.17;100.00;59696.56;5028832;28;52680;-43
2021/06/06 01:13:21;;;;;;;;;6.75;6.75;;;;;-147.17;100.00;59696.56;5028414;28;51083;-44
2021/06/06 01:16:22;;;;;;;;;7.75;7.25;;;;;-147.17;100.00;59696.56;5030420;28;51192;-45
2021/06/06 01:18:50;;;;;;;;;6.00;6.00;;;;;-147.17;100.00;59696.56;5032186;28;50940;-46
2021/06/06 01:21:50;;;;;;;;;9.00;8.00;;;;;-147.17;100.00;59696.56;5030810;28;51041;-42
2021/06/06 01:24:30;;;;;;;;;6.67;6.67;;;;;-147.17;100.00;59696.56;5018557;28;51163;-43
2021/06/06 01:27:11;;;;;;;;;8.00;7.50;;;;;-147.17;100.00;59696.56;5028297;28;51089;-44
2021/06/06 01:30:00;;;;;;;;;8.00;7.00;;;;;-147.17;100.00;59696.56;5030959;28;51088;-43
2021/06/06 01:32:38;;;;;;;;;6.00;6.00;;;;;-147.17;100.00;59696.56;5031374;28;53166;-44
2021/06/06 01:35:29;;;;;;;;;8.75;8.00;;;;;-147.17;100.00;59696.56;5030003;28;51298;-43
2021/06/06 01:38:05;;;;;;;;;6.33;6.33;;;;;-147.17;100.00;59696.56;5029237;28;51261;-46
2021/06/06 01:40:34;;;;;;;;;7.00;6.33;;;;;-147.17;100.00;59696.56;5030560;28;51155;-47
2021/06/06 01:43:05;;;;;;;;;7.00;6.33;;;;;-147.17;100.00;59696.56;5030962;28;51685;-48
2021/06/06 01:45:45;;;;;;;;;6.00;6.00;;;;;-147.17;100.00;59696.56;5026952;28;51139;-44
2021/06/06 01:48:12;;;;;;;;;5.00;5.00;;;;;-147.17;100.00;59696.56;5033066;28;51000;-43
2021/06/06 01:50:49;;;;;;;;;7.00;7.00;;;;;-147.17;100.00;59696.56;5034614;28;51134;-43
2021/06/06 01:53:17;;;;;;;;;7.33;7.00;;;;;-147.17;100.00;59696.56;5050129;28;51138;-42
2021/06/06 01:55:47;;;;;;;;;7.33;7.00;;;;;-147.17;100.00;59696.56;5031885;28;51016;-45
2021/06/06 01:58:14;;;;;;;;;6.00;5.67;;;;;-147.17;100.00;59696.56;5031465;28;51377;-44
2021/06/06 02:00:49;;;;;;;;;6.67;6.33;;;;;-147.17;100.00;59696.56;5032241;28;51055;-43
2021/06/06 02:03:15;;;;;;;;;6.00;5.67;;;;;-147.17;100.00;59696.56;5032451;28;53241;-44
2021/06/06 02:05:41;;;;;;;;;7.67;7.00;;;;;-147.17;100.00;59696.56;5033569;28;51244;-48
2021/06/06 02:08:10;;;;;;;;;8.00;7.67;;;;;-147.17;100.00;59696.56;5031092;28;50953;-43
2021/06/06 02:10:42;;;;;;;;;6.00;6.00;;;;;-147.17;100.00;59696.56;5035049;28;51100;-42
2021/06/06 02:13:12;;;;;;;;;9.00;8.67;;;;;-147.17;100.00;59696.56;5031699;28;52666;-43
2021/06/06 02:15:39;;;;;;;;;6.00;5.00;;;;;-147.17;100.00;59696.56;5032195;28;51114;-44
2021/06/06 02:18:07;;;;;;;;;6.00;6.00;;;;;-147.17;100.00;59696.56;5033415;28;51366;-43
2021/06/06 02:20:41;;;;;;;;;9.00;9.00;;;;;-147.17;100.00;59696.56;5028327;28;51361;-42
2021/06/06 02:23:07;;;;;;;;;8.75;8.75;;;;;-147.17;100.00;59696.56;5033497;28;52279;-43
2021/06/06 02:25:37;;;;;;;;;7.50;7.50;;;;;-147.17;100.00;59696.56;5031902;28;51203;-45
2021/06/06 02:28:10;;;;;;;;;9.75;9.75;;;;;-147.17;100.00;59696.56;5033827;28;50952;-46
2021/06/06 02:30:49;;;;;;;;;7.50;7.50;;;;;-147.17;100.00;59696.56;5032097;28;50941;-45
2021/06/06 02:33:33;;;;;;;;;6.25;6.25;;;;;-147.17;100.00;59696.56;5032151;28;50962;-43
2021/06/06 02:36:03;;;;;;;;;6.00;6.00;;;;;-147.17;100.00;59696.56;5030278;28;51135;-46
2021/06/06 02:38:37;;;;;;;;;7.50;7.00;;;;;-147.17;100.00;59696.56;5031782;28;51132;-42
2021/06/06 02:41:09;;;;;;;;;9.00;7.75;;;;;-147.17;100.00;59696.56;5028154;28;51300;-43
2021/06/06 02:43:50;;;;;;;;;8.25;7.75;;;;;-147.17;100.00;59696.56;5033160;28;52918;-45
2021/06/06 02:46:19;;;;;;;;;8.25;7.00;;;;;-147.17;100.00;59696.56;5031711;28;51132;-43
2021/06/06 02:48:50;;;;;;;;;7.00;7.00;;;;;-147.17;100.00;59696.56;5033678;28;51171;-45
2021/06/06 02:51:21;;;;;;;;;9.00;8.00;;;;;-147.17;100.00;59696.56;5033068;28;51164;-43
2021/06/06 02:53:59;;;;;;;;;8.33;8.33;;;;;-147.17;100.00;59696.56;5031750;28;51487;-44
2021/06/06 02:56:30;;;;;;;;;8.50;8.25;;;;;-147.17;100.00;59696.56;5033695;28;51130;-46
2021/06/06 02:59:04;;;;;;;;;7.00;7.00;;;;;-147.17;100.00;59696.56;5034190;28;51121;-46
2021/06/06 03:01:37;;;;;;;;;6.25;6.25;;;;;-147.17;100.00;59696.56;5028932;28;51170;-44
2021/06/06 03:04:06;;;;;;;;;8.00;8.00;;;;;-147.17;100.00;59696.56;5033666;28;50935;-45
2021/06/06 03:06:47;;;;;;;;;6.50;6.50;;;;;-147.17;100.00;59696.56;5031281;28;51066;-46
2021/06/06 03:09:15;;;;;;;;;9.25;9.00;;;;;-147.17;100.00;59696.56;5032934;28;51229;-44
2021/06/06 03:11:43;;;;;;;;;9.00;9.00;;;;;-147.17;100.00;59696.56;5034107;28;51291;-47
2021/06/06 03:14:12;;;;;;;;;8.00;8.00;;;;;-147.17;100.00;59696.56;5033703;28;52336;-46
2021/06/06 03:16:44;;;;;;;;;7.00;7.00;;;;;-147.17;100.00;59696.56;5031920;28;51062;-45
2021/06/06 03:19:10;;;;;;;;;7.00;7.00;;;;;-147.17;100.00;59696.56;5031655;28;51179;-44
2021/06/06 03:21:39;;;;;;;;;6.00;6.00;;;;;-147.17;100.00;59696.56;5033390;28;51383;-44
2021/06/06 03:24:20;;;;;;;;;7.75;7.00;;;;;-147.17;100.00;59696.56;5030271;28;52772;-46
2021/06/06 03:26:47;;;;;;;;;9.00;8.33;;;;;-147.17;100.00;59696.56;5033010;28;51154;-44
2021/06/06 03:29:16;;;;;;;;;9.00;9.00;;;;;-147.17;100.00;59696.56;5066112;28;51116;-44
2021/06/06 03:31:56;;;;;;;;;7.00;7.00;;;;;-147.17;100.00;59696.56;5033824;28;51216;-46
2021/06/06 03:34:21;;;;;;;;;8.00;8.00;;;;;-147.17;100.00;59696.56;5033169;28;51122;-46
2021/06/06 03:36:48;;;;;;;;;7.25;7.00;;;;;-147.17;100.00;59696.56;5032784;28;50946;-43
2021/06/06 03:39:16;;;;;;;;;7.75;7.75;;;;;-147.17;100.00;59696.56;5031935;28;51064;-44
2021/06/06 03:41:43;;;;;;;;;7.67;7.00;;;;;-147.17;100.00;59696.56;5033727;28;51128;-45
2021/06/06 03:44:09;;;;;;;;;7.25;7.00;;;;;-147.17;100.00;59696.56;5029815;28;51943;-43
2021/06/06 03:46:37;;;;;;;;;8.00;8.00;;;;;-147.17;100.00;59696.56;5032827;28;51729;-43
2021/06/06 03:49:05;;;;;;;;;9.00;8.50;;;;;-147.17;100.00;59696.56;5030894;28;51160;-43
2021/06/06 03:51:30;;;;;;;;;7.75;7.75;;;;;-147.17;100.00;59696.56;5033103;28;50885;-43
2021/06/06 03:53:56;;;;;;;;;9.00;8.50;;;;;-147.17;100.00;59696.56;5031758;28;52801;-45
2021/06/06 03:56:22;;;;;;;;;10.00;9.25;;;;;-147.17;100.00;59696.56;5033579;28;50944;-43
2021/06/06 03:58:47;;;;;;;;;8.00;8.00;;;;;-147.17;100.00;59696.56;5031864;28;51030;-44
2021/06/06 04:01:12;;;;;;;;;9.75;9.75;;;;;-147.17;100.00;59696.56;5032787;28;51060;-42
2021/06/06 04:03:38;;;;;;;;;9.25;9.00;;;;;-147.17;100.00;59696.56;5033091;28;51342;-43
2021/06/06 04:06:04;;;;;;;;;8.50;8.00;;;;;-147.17;100.00;59696.56;5028695;28;51266;-42
2021/06/06 04:08:30;;;;;;;;;9.75;9.25;;;;;-147.17;100.00;59696.56;5032085;28;51029;-45
2021/06/06 04:10:56;;;;;;;;;11.25;10.00;;;;;-147.17;100.00;59696.56;5032122;28;51074;-44
2021/06/06 04:13:22;;;;;;;;;11.50;10.00;;;;;-147.17;100.00;59696.56;5032715;28;51832;-43
2021/06/06 04:15:48;;;;;;;;;8.00;8.00;;;;;-147.17;100.00;59696.56;5033076;28;51023;-45
2021/06/06 04:18:21;;;;;;;;;11.75;11.75;;;;;-147.17;100.00;59696.56;5031144;28;50976;-42
2021/06/06 04:20:48;;;;;;;;;9.00;8.75;;;;;-147.17;100.00;59696.56;5031482;28;51202;-44
2021/06/06 04:23:15;;;;;;;;;8.25;8.25;;;;;-147.17;100.00;59696.56;5046190;28;53000;-43
2021/06/06 04:25:40;;;;;;;;;10.25;9.75;;;;;-147.17;100.00;59696.56;5029535;28;52520;-42
2021/06/06 04:28:07;;;;;;;;;8.75;8.75;;;;;-147.17;100.00;59696.56;5030709;28;51273;-45
2021/06/06 04:30:33;;;;;;;;;10.00;9.75;;;;;-147.17;100.00;59696.56;5033136;28;51217;-45
2021/06/06 04:33:00;;;;;;;;;8.25;8.25;;;;;-147.17;100.00;59696.56;5031635;28;52930;-42
2021/06/06 04:35:26;;;;;;;;;12.00;11.50;;;;;-147.17;100.00;59696.56;5032864;28;51020;-43
2021/06/06 04:37:51;;;;;;;;;8.00;7.50;;;;;-147.17;100.00;59696.56;5028063;28;51507;-45
2021/06/06 04:40:17;;;;;;;;;8.00;8.00;;;;;-147.17;100.00;59696.56;5032715;28;51409;-43
2021/06/06 04:42:43;;;;;;;;;9.50;9.25;;;;;-147.17;100.00;59696.56;5031574;28;50989;-43
2021/06/06 04:45:12;;;;;;;;;7.25;6.00;;;;;-147.17;100.00;59696.56;5032460;28;51174;-42
2021/06/06 04:47:37;;;;;;;;;8.50;8.50;;;;;-147.17;100.00;59696.56;5028615;28;51249;-44
2021/06/06 04:50:06;;;;;;;;;10.00;9.25;;;;;-147.17;100.00;59696.56;5032344;28;50977;-45
2021/06/06 04:52:36;;;;;;;;;8.75;8.25;;;;;-147.17;100.00;59696.56;5031316;28;51397;-44
2021/06/06 04:55:17;;;;;;;;;7.00;7.00;;;;;-147.17;100.00;59696.56;5030121;28;50969;-43
2021/06/06 04:57:43;;;;;;;;;9.50;8.50;;;;;-147.17;100.00;59696.56;5031863;28;51139;-43
2021/06/06 05:00:12;;;;;;;;;8.50;8.00;;;;;-147.17;100.00;59696.56;5032397;28;50946;-44
2021/06/06 05:02:38;;;;;;;;;8.75;8.75;;;;;-147.17;100.00;59696.56;5025525;28;51466;-43
2021/06/06 05:05:04;;;;;;;;;10.00;9.00;;;;;-147.17;100.00;59696.56;5028922;28;51215;-42
2021/06/06 05:07:30;;;;;;;;;10.50;10.25;;;;;-147.17;100.00;59696.56;5058894;28;51748;-43
2021/06/06 05:09:55;;;;;;;;;9.67;9.33;;;;;-147.17;100.00;59696.56;5028971;28;51084;-46
2021/06/06 05:12:21;;;;;;;;;12.75;11.75;;;;;-147.17;100.00;59696.56;5030785;28;53940;-45
2021/06/06 05:14:46;;;;;;;;;11.00;10.67;;;;;-147.17;100.00;59696.56;5035673;28;51065;-45
2021/06/06 05:17:11;;;;;;;;;8.67;7.67;;;;;-147.17;100.00;59696.56;5031569;28;51197;-44
2021/06/06 05:19:36;;;;;;;;;7.67;7.67;;;;;-147.17;100.00;59696.56;5033394;28;51222;-43
2021/06/06 05:22:04;;;;;;;;;9.67;9.33;;;;;-147.17;100.00;59696.56;5034402;28;51250;-42
2021/06/06 05:24:30;;;;;;;;;7.33;7.33;;;;;-147.17;100.00;59696.56;5035400;28;50998;-44
2021/06/06 05:26:55;;;;;;;;;7.33;7.00;;;;;-147.17;100.00;59696.56;5032199;28;51671;-42
2021/06/06 05:29:22;;;;;;;;;8.33;8.33;;;;;-147.17;100.00;59696.56;5027543;28;53796;-42
2021/06/06 05:31:49;;;;;;;;;9.00;8.00;;;;;-147.17;100.00;59696.56;5025266;28;51766;-45
2021/06/06 05:34:14;;;;;;;;;8.33;8.00;;;;;-147.17;100.00;59696.56;5027165;28;51284;-43
2021/06/06 05:36:40;;;;;;;;;6.00;6.00;;;;;-147.17;100.00;59696.56;5025323;28;51233;-43
2021/06/06 05:39:06;;;;;;;;;9.00;8.00;;;;;-147.17;100.00;59696.56;5028259;28;51486;-45
2021/06/06 05:41:32;;;;;;;;;7.33;6.33;;;;;-147.17;100.00;59696.56;5025149;28;51823;-45
2021/06/06 05:43:58;;;;;;;;;8.00;8.00;;;;;-147.17;100.00;59696.56;5025097;28;50893;-43
2021/06/06 05:46:23;;;;;;;;;8.00;7.00;;;;;-147.17;100.00;59696.56;5026011;28;51176;-43
2021/06/06 05:48:49;;;;;;;;;7.00;7.00;;;;;-147.17;100.00;59696.56;5025198;28;50858;-45
2021/06/06 05:51:16;;;;;;;;;10.33;9.33;;;;;-147.17;100.00;59696.56;5023079;28;51949;-47
2021/06/06 05:53:41;;;;;;;;;9.00;8.67;;;;;-147.17;100.00;59696.56;5026496;28;51733;-43
2021/06/06 05:56:09;;;;;;;;;7.00;7.00;;;;;-147.17;100.00;59696.56;5023981;28;54095;-43
2021/06/06 05:58:35;;;;;;;;;5.67;5.67;;;;;-147.17;100.00;59696.56;5025424;28;51179;-46
2021/06/06 06:01:01;;;;;;;;;6.33;6.00;;;;;-147.17;100.00;59696.56;5023491;28;52509;-45
2021/06/06 06:03:27;;;;;;;;;6.00;6.00;;;;;-147.17;100.00;59696.56;5018757;28;51531;-43
2021/06/06 06:05:54;;;;;;;;;4.33;4.00;;;;;-147.17;100.00;59696.56;5027678;28;51323;-47
2021/06/06 06:08:27;;;;;;;;;4.00;4.00;;;;;-147.17;100.00;59696.56;5024201;28;51184;-45
2021/06/06 06:10:54;;;;;;;;;6.67;4.33;;;;;-147.17;100.00;59696.56;5019455;28;51374;-44
2021/06/06 06:13:21;;;;;;;;;5.33;5.33;;;;;-147.17;100.00;59696.56;5024806;28;51206;-48
2021/06/06 06:15:47;;;;;;;;;5.67;5.00;;;;;-147.17;100.00;59696.56;5026069;28;51218;-45
2021/06/06 06:18:13;;;;;;;;;4.00;4.00;;;;;-147.17;100.00;59696.56;5027013;28;51060;-48
2021/06/06 06:20:39;;;;;;;;;4.67;4.67;;;;;-147.17;100.00;59696.56;5021110;28;52062;-43
2021/06/06 06:23:05;;;;;;;;;3.00;3.00;;;;;-147.17;100.00;59696.56;5025313;28;51387;-45
2021/06/06 06:25:31;;;;;;;;;4.00;4.00;;;;;-147.17;100.00;59696.56;5025020;28;51238;-43
2021/06/06 06:27:56;;;;;;;;;5.00;4.67;;;;;-147.17;100.00;59696.56;5024532;28;51929;-45
2021/06/06 06:30:30;;;;;;;;;3.33;3.33;;;;;-147.17;100.00;59696.56;5026274;28;51595;-47
2021/06/06 06:32:56;;;;;;;;;4.00;3.00;;;;;-147.17;100.00;59696.56;5022268;28;51325;-45
2021/06/06 06:35:22;;;;;;;;;5.33;5.00;;;;;-147.17;100.00;59696.56;5025558;28;51286;-46
2021/06/06 06:37:47;;;;;;;;;3.00;3.00;;;;;-147.17;100.00;59696.56;5019550;28;51473;-43
2021/06/06 06:40:14;;;;;;;;;14.50;14.00;;;;;-147.17;100.00;59696.56;5054994;28;53239;-44
2021/06/06 06:42:41;;;;;;;;;6.00;6.00;;;;;-147.17;100.00;59696.56;5020945;28;51160;-44
2021/06/06 06:45:10;;;;;;;;;4.00;4.00;;;;;-147.17;100.00;59696.56;5023508;28;51856;-45
2021/06/06 06:47:35;;;;;;;;;4.00;4.00;;;;;-147.17;100.00;59696.56;5024268;28;51077;-48
2021/06/06 06:50:01;;;;;;;;;3.33;3.33;;;;;-147.17;100.00;59696.56;5022434;28;52643;-44
2021/06/06 06:52:26;;;;;;;;;2.00;2.00;;;;;-147.17;100.00;59696.56;5019977;28;51885;-44
2021/06/06 06:54:52;;;;;;;;;4.33;3.33;;;;;-147.17;100.00;59696.56;5018716;28;51544;-43
2021/06/06 06:57:18;;;;;;;;;2.00;2.00;;;;;-147.17;100.00;59696.56;5024391;28;51213;-45
2021/06/06 06:59:43;;;;;;;;;2.00;2.00;;;;;-147.17;100.00;59696.56;5020964;28;51752;-43
2021/06/06 07:02:09;;;;;;;;;4.33;3.00;;;;;-147.17;100.00;59696.56;5022292;28;51620;-43
2021/06/06 07:04:34;;;;;;;;;2.00;2.00;;;;;-147.17;100.00;59696.56;5024381;28;51271;-44
2021/06/06 07:07:00;;;;;;;;;4.33;4.33;;;;;-147.17;100.00;59696.56;5026646;28;51469;-44
2021/06/06 07:09:26;;;;;;;;;5.00;4.00;;;;;-147.17;100.00;59696.56;5023715;28;52340;-45
2021/06/06 07:11:54;;;;;;;;;5.00;5.00;;;;;-147.17;100.00;59696.56;5019888;28;51579;-43
2021/06/06 07:14:20;;;;;;;;;3.00;2.33;;;;;-147.17;100.00;59696.56;5021330;28;51123;-46
2021/06/06 07:16:45;;;;;;;;;3.00;3.00;;;;;-147.17;100.00;59696.56;5023548;28;51250;-45
2021/06/06 07:19:11;;;;;;;;;3.00;3.00;;;;;-147.17;100.00;59696.56;5024253;28;51912;-45
2021/06/06 07:21:37;;;;;;;;;2.33;2.33;;;;;-147.17;100.00;59696.56;5027435;28;51355;-45
2021/06/06 07:24:03;;;;;;;;;3.00;3.00;;;;;-147.17;100.00;59696.56;5026915;28;54212;-43
2021/06/06 07:26:41;;;;;;;;;3.33;3.33;;;;;-147.17;100.00;59696.56;5026314;28;51748;-44
2021/06/06 07:29:13;;;;;;;;;2.00;2.00;;;;;-147.17;100.00;59696.56;5023545;28;51357;-44
2021/06/06 07:31:40;;;;;;;;;3.00;3.00;;;;;-147.17;100.00;59696.56;5025139;28;51919;-45
2021/06/06 07:34:06;;;;;;;;;3.00;3.00;;;;;-147.17;100.00;59696.56;5025208;28;51271;-44
2021/06/06 07:36:31;;;;;;;;;3.00;3.00;;;;;-147.17;100.00;59696.56;5021361;28;51170;-45
2021/06/06 07:38:57;;;;;;;;;2.33;2.33;;;;;-147.17;100.00;59696.56;5026577;28;52374;-43
2021/06/06 07:41:23;;;;;;;;;2.00;2.00;;;;;-147.17;100.00;59696.56;5022684;28;51149;-44
2021/06/06 07:43:49;;;;;;;;;3.00;3.00;;;;;-147.17;100.00;59696.56;5021941;28;51334;-45
2021/06/06 07:46:15;;;;;;;;;3.67;2.00;;;;;-147.17;100.00;59696.56;5024479;28;51552;-44
2021/06/06 07:48:42;;;;;;;;;2.33;2.33;;;;;-147.17;100.00;59696.56;5021391;28;51765;-44
2021/06/06 07:51:08;;;;;;;;;3.00;3.00;;;;;-147.17;100.00;59696.56;5024125;28;51128;-44
2021/06/06 07:53:34;;;;;;;;;3.00;2.00;;;;;-147.17;100.00;59696.56;5024952;28;51126;-45
2021/06/06 07:55:59;;;;;;;;;2.00;2.00;;;;;-147.17;100.00;59696.56;5021689;28;51260;-45
2021/06/06 07:58:29;;;;;;;;;2.00;2.00;;;;;-147.17;100.00;59696.56;5024830;28;51963;-48
2021/06/06 08:00:55;;;;;;;;;3.00;3.00;;;;;-147.17;100.00;59696.56;5018896;28;51144;-45
2021/06/06 08:03:20;;;;;;;;;2.33;2.33;;;;;-147.17;100.00;59696.56;5025286;28;51121;-43
2021/06/06 08:05:48;;;;;;;;;2.00;1.33;;;;;-147.17;100.00;59696.56;5023785;28;51782;-45
2021/06/06 08:08:14;;;;;;;;;1.00;1.00;;;;;-147.17;100.00;59696.56;5023960;28;51437;-42
2021/06/06 08:10:43;;;;;;;;;1.00;1.00;;;;;-147.17;100.00;59696.56;5025839;28;51419;-41
2021/06/06 08:13:09;;;;;;;;;2.00;2.00;;;;;-147.17;100.00;59696.56;5026444;28;51188;-45
2021/06/06 08:15:35;;;;;;;;;4.00;4.00;;;;;-147.17;100.00;59696.56;5021507;28;51593;-43
2021/06/06 08:18:07;;;;;;;;;1.00;1.00;;;;;-147.17;100.00;59696.56;5019451;28;52513;-46
2021/06/06 08:20:38;;;;;;;;;2.00;1.67;;;;;-147.17;100.00;59696.56;5017708;28;53545;-42
2021/06/06 08:23:07;;;;;;;;;1.67;1.67;;;;;-147.17;100.00;59696.56;5024875;28;51249;-44
2021/06/06 08:25:32;;;;;;;;;2.00;2.00;;;;;-147.17;100.00;59696.56;5022150;28;51689;-44
2021/06/06 08:27:58;;;;;;;;;1.33;1.33;;;;;-147.17;100.00;59696.56;5023578;28;51471;-43
2021/06/06 08:30:34;;;;;;;;;2.67;2.67;;;;;-147.17;100.00;59696.56;5022577;28;51339;-42
2021/06/06 08:33:00;;;;;;;;;1.67;1.67;;;;;-147.17;100.00;59696.56;5024965;28;51198;-44
2021/06/06 08:35:25;;;;;;;;;2.33;1.67;;;;;-147.17;100.00;59696.56;5025089;28;51065;-43
2021/06/06 08:37:51;;;;;;;;;1.33;1.33;;;;;-147.17;100.00;59696.56;5022896;28;52798;-44
2021/06/06 08:40:33;;;;;;;;;1.00;1.00;;;;;-147.17;100.00;59696.56;5023487;28;51210;-42
2021/06/06 08:43:01;;;;;;;;;0.67;0.33;;;;;-147.17;100.00;59696.56;5021870;28;54469;-44
2021/06/06 08:45:32;;;;;;;;;1.00;1.00;;;;;-147.17;100.00;59696.56;5025016;28;51276;-43
2021/06/06 08:48:00;;;;;;;;;2.00;1.67;;;;;-147.17;100.00;59696.56;5022140;28;51426;-43
2021/06/06 08:50:30;;;;;;;;;1.00;1.00;;;;;-147.17;100.00;59696.56;5024711;28;51158;-43
2021/06/06 08:53:22;;;;;;;;;2.00;2.00;;;;;-147.17;100.00;59696.56;5024089;28;51297;-45
2021/06/06 08:56:16;;;;;;;;;1.00;1.00;;;;;-147.17;100.00;59696.56;5024407;28;51085;-45
2021/06/06 08:59:08;;;;;;;;;2.67;2.33;;;;;-147.17;100.00;59696.56;5020799;28;52468;-44
2021/06/06 09:01:34;;;;;;;;;1.00;1.00;;;;;-147.17;100.00;59696.56;5022222;28;51245;-44
2021/06/06 09:04:03;;;;;;;;;1.67;1.67;;;;;-147.17;100.00;59696.56;5024512;28;51368;-42
2021/06/06 09:06:39;;;;;;;;;4.00;3.67;;;;;-147.17;100.00;59696.56;5022408;28;51354;-44
2021/06/06 09:09:08;;;;;;;;;2.00;2.00;;;;;-147.17;100.00;59696.56;5019012;28;52754;-42
2021/06/06 09:11:35;;;;;;;;;4.00;4.00;;;;;-147.17;100.00;59696.56;5021686;28;51044;-43
2021/06/06 09:14:02;;;;;;;;;1.00;1.00;;;;;-147.17;100.00;59696.56;5023900;28;51166;-43
2021/06/06 09:16:34;;;;;;;;;2.33;2.33;;;;;-147.17;100.00;59696.56;5023827;28;51804;-44
2021/06/06 09:19:11;;;;;;;;;3.00;3.00;;;;;-147.17;100.00;59696.56;5020474;28;52118;-41
2021/06/06 09:21:53;;;;;;;;;3.00;3.00;;;;;-147.17;100.00;59696.56;5017491;28;51242;-43
2021/06/06 09:24:34;;;;;;;;;2.00;2.00;;;;;-147.17;100.00;59696.56;5022364;28;51283;-42
2021/06/06 09:27:29;;;;;;;;;2.33;2.33;;;;;-147.17;100.00;59696.56;5021117;28;51709;-43
2021/06/06 09:30:16;;;;;;;;;2.67;2.67;;;;;-147.17;100.00;59696.56;5008220;28;51409;-43
2021/06/06 09:32:43;;;;;;;;;4.00;3.00;;;;;-147.17;100.00;59696.56;5019638;28;51291;-43
2021/06/06 09:35:21;;;;;;;;;5.75;5.75;;;;;-147.17;100.00;59696.56;5040345;28;51470;-43
2021/06/06 09:37:51;;;;;;;;;2.67;2.67;;;;;-147.17;100.00;59696.56;5026328;28;51149;-42
2021/06/06 09:40:36;;;;;;;;;3.00;3.00;;;;;-147.17;100.00;59696.56;5029078;28;52735;-46
2021/06/06 09:43:03;;;;;;;;;4.00;3.00;;;;;-147.17;100.00;59696.56;5022965;28;51193;-44
2021/06/06 09:45:32;;;;;;;;;3.00;3.00;;;;;-147.17;100.00;59696.56;5025106;28;51340;-43
2021/06/06 09:48:16;;;;;;;;;4.67;3.67;;;;;-147.17;100.00;59696.56;5024007;28;51315;-46
2021/06/06 09:50:51;;;;;;;;;3.00;2.00;;;;;-147.17;100.00;59696.56;5022510;28;51072;-44
2021/06/06 09:53:27;;;;;;;;;3.00;3.00;;;;;-147.17;100.00;59696.56;5022161;28;51177;-42
2021/06/06 09:56:06;;;;;;;;;4.00;3.00;;;;;-147.17;100.00;59696.56;5024099;28;51379;-44
2021/06/06 09:58:34;;;;;;;;;4.00;4.00;;;;;-147.17;100.00;59696.56;5022958;28;54049;-45
2021/06/06 10:01:18;;;;;;;;;6.00;5.00;;;;;-147.17;100.00;59696.56;5025047;28;52807;-44
2021/06/06 10:03:51;;;;;;;;;3.00;3.00;;;;;-147.17;100.00;59696.56;5021182;28;50993;-43
2021/06/06 10:06:25;;;;;;;;;4.67;4.67;;;;;-147.17;100.00;59696.56;5024824;28;50969;-46
2021/06/06 10:09:17;;;;;;;;;4.67;4.00;;;;;-147.17;100.00;59696.56;5024545;28;51281;-42
2021/06/06 10:12:07;;;;;;;;;4.00;4.00;;;;;-147.17;100.00;59696.56;5020236;28;53086;-42
2021/06/06 10:14:50;;;;;;;;;4.00;4.00;;;;;-147.17;100.00;59696.56;5025095;28;51242;-45
2021/06/06 10:17:26;;;;;;;;;3.33;3.33;;;;;-147.17;100.00;59696.56;5024910;28;53128;-42
2021/06/06 10:20:38;;;;;;;;;7.33;6.67;;;;;-147.17;100.00;59696.56;5025718;28;51063;-48
2021/06/06 10:23:05;;;;;;;;;5.00;5.00;;;;;-147.17;100.00;59696.56;5014194;28;52736;-44
2021/06/06 10:25:57;;;;;;;;;4.33;4.00;;;;;-147.17;100.00;59696.56;5023297;28;51324;-44
2021/06/06 10:28:30;;;;;;;;;3.67;3.67;;;;;-147.17;100.00;59696.56;5022767;28;50998;-43
2021/06/06 10:31:09;;;;;;;;;11.00;10.67;;;;;-147.17;100.00;59696.56;5022697;28;51667;-44
2021/06/06 10:33:41;;;;;;;;;4.67;4.67;;;;;-147.17;100.00;59696.56;5022793;28;53015;-43
2021/06/06 10:36:07;;;;;;;;;4.67;4.67;;;;;-147.17;100.00;59696.56;5024681;28;51240;-43
2021/06/06 10:38:39;;;;;;;;;5.33;5.00;;;;;-147.17;100.00;59696.56;5023145;28;51165;-42
2021/06/06 10:41:20;;;;;;;;;4.00;4.00;;;;;-147.17;100.00;59696.56;5027164;28;51099;-43
2021/06/06 10:44:00;;;;;;;;;5.00;5.00;;;;;-147.17;100.00;59696.56;5022497;28;53191;-44
2021/06/06 10:46:39;;;;;;;;;4.00;4.00;;;;;-147.17;100.00;59696.56;5024072;28;51194;-45
2021/06/06 10:49:28;;;;;;;;;4.67;4.67;;;;;-147.17;100.00;59696.56;5025056;28;51147;-45
2021/06/06 10:52:00;;;;;;;;;5.33;5.00;;;;;-147.17;100.00;59696.56;5027545;28;53144;-45
2021/06/06 10:54:32;;;;;;;;;5.00;5.00;;;;;-147.17;100.00;59696.56;5025216;28;53104;-43
2021/06/06 10:57:03;;;;;;;;;6.00;5.67;;;;;-147.17;100.00;59696.56;5022575;28;51282;-42
2021/06/06 10:59:43;;;;;;;;;7.00;7.00;;;;;-147.17;100.00;59696.56;5057206;28;51068;-44
2021/06/06 11:02:24;;;;;;;;;6.00;6.00;;;;;-147.17;100.00;59696.56;5023679;28;51370;-46
2021/06/06 11:04:53;;;;;;;;;4.00;4.00;;;;;-147.17;100.00;59696.56;5022578;28;51958;-46
2021/06/06 11:07:19;;;;;;;;;4.67;4.67;;;;;-147.17;100.00;59696.56;5022166;28;50877;-46
2021/06/06 11:10:06;;;;;;;;;4.00;4.00;;;;;-147.17;100.00;59696.56;5025545;28;51180;-46
2021/06/06 11:12:36;;;;;;;;;4.00;4.00;;;;;-147.17;100.00;59696.56;5022921;28;51095;-44
2021/06/06 11:15:28;;;;;;;;;4.00;4.00;;;;;-147.17;100.00;59696.56;5025239;28;51727;-45
2021/06/06 11:18:15;;;;;;;;;5.00;5.00;;;;;-147.17;100.00;59696.56;5024919;28;52872;-43
2021/06/06 11:20:55;;;;;;;;;7.33;7.33;;;;;-147.17;100.00;59696.56;5022679;28;52724;-44
2021/06/06 11:23:32;;;;;;;;;3.67;3.67;;;;;-147.17;100.00;59696.56;5025187;28;51336;-43